KPHD/PHD METAR and TAF weather

Enter ICAO airport designator
Station Type Date Time Source
KPHD METAR 2020/03/31 06:53 UTC NOAA

KPHD 310653Z AUTO 32003KT 10SM FEW015 BKN060 04/02 A3003 RMK AO2 SLP173 T00440017


Station Type Date Time Source
KPHD Decoded METAR 2020/03/31 06:53 UTC NOAA

NEW PHILADELPHIA CLEVER FLD, OH, United States (KPHD) 40-28N 81-25W 272M
Mar 31, 2020 - 02:53 AM EDT / 2020.03.31 0653 UTC
Wind: from the NW (320 degrees) at 3 MPH (3 KT):0
Visibility: 10 mile(s):0
Sky conditions: mostly cloudy
Temperature: 39.9 F (4.4 C)
Dew Point: 35.1 F (1.7 C)
Relative Humidity: 82%
Pressure (altimeter): 30.03 in. Hg (1016 hPa)
ob: KPHD 310653Z AUTO 32003KT 10SM FEW015 BKN060 04/02 A3003 RMK AO2 SLP173 T00440017
cycle: 7

Station Type Date Time Source
KPHD TAF UTC NOAA

Error!

Example: see airport list